Overview Statistics Trail Chart Weather Telemetry Raw packets
 

This is the latest recevied weather packets stored in our database for station/object AI5BL. If no packets are shown the sender has not sent any weather packets the latest 10 day(s).

<< 65 66 67 68 69 70 71 >>
Time Temp. Humidity Pressure Rain* Wind** Luminosity Snow
1788199628 33.33° C 55% 1020.1 hPa 0 mm - 913 W/m² -
1788199323 33.33° C 56% 1020.2 hPa 0 mm - 155 W/m² -
1788199023 33.33° C 56% 1020.3 hPa 0 mm - 581 W/m² -
1788198720 33.89° C 56% 1020.3 hPa 0 mm - 168 W/m² -
1788198420 32.78° C 58% 1020.3 hPa 0 mm - 896 W/m² -
1788198115 35° C 54% 1020.4 hPa 0 mm - 157 W/m² -
1788197813 34.44° C 54% 1020.3 hPa 0 mm - 934 W/m² -
1788197510 33.89° C 58% 1020.5 hPa 0 mm - 914 W/m² -
1788197209 33.89° C 55% 1020.6 hPa 0 mm - 835 W/m² -
1788196904 33.89° C 55% 1020.6 hPa 0 mm - 846 W/m² -
1788196599 33.89° C 55% 1020.5 hPa 0 mm - 198 W/m² -
1788196297 33.33° C 57% 1020.9 hPa 0 mm - 892 W/m² -
1788195992 33.89° C 55% 1021.1 hPa 0 mm - 168 W/m² -
1788195689 33.33° C 57% 1021.1 hPa 0 mm - 482 W/m² -
1788195385 33.89° C 56% 1021.2 hPa 0 mm - 865 W/m² -
1788195082 33.89° C 57% 1021.1 hPa 0 mm - 796 W/m² -
1788194777 32.78° C 62% 1021.2 hPa 0 mm - 839 W/m² -
1788194473 32.22° C 62% 1021.2 hPa 0 mm - 800 W/m² -
1788194167 32.22° C 61% 1021.1 hPa 0 mm - 819 W/m² -
1788193863 32.78° C 61% 1021.2 hPa 0 mm - 285 W/m² -
1788193562 33.33° C 60% 1021.3 hPa 0 mm - 787 W/m² -
1788193260 32.22° C 62% 1021.3 hPa 0 mm - 455 W/m² -
1788192956 31.67° C 68% 1021.2 hPa 0 mm - 765 W/m² -
1788192653 31.67° C 66% 1021.5 hPa 0 mm - 157 W/m² -
1788192351 31.67° C 66% 1021.3 hPa 0 mm - 814 W/m² -

* Rain latest hour (hover to see other rain measurements)
** Current wind speed in m/s (hover to see current wind gust speed)